createdAt,value
2019-06-20T03:00:27.511Z,19.90
2019-06-20T03:02:54.589Z,20.00
2019-06-20T03:05:21.590Z,20.00
2019-06-20T03:07:48.890Z,20.10
2019-06-20T03:10:15.967Z,20.10
2019-06-20T03:12:42.938Z,20.00
2019-06-20T03:15:09.949Z,20.00
2019-06-20T03:17:37.522Z,20.00
2019-06-20T03:20:04.526Z,20.00
2019-06-20T03:22:31.549Z,19.90
2019-06-20T03:24:58.644Z,20.00
2019-06-20T03:27:25.649Z,20.00
2019-06-20T03:29:52.635Z,20.00
2019-06-20T03:32:19.701Z,20.10
2019-06-20T03:34:46.693Z,20.10
2019-06-20T03:37:14.029Z,20.20
2019-06-20T03:39:41.301Z,20.20
2019-06-20T03:42:10.227Z,20.20
2019-06-20T03:44:37.216Z,20.10
2019-06-20T03:47:04.279Z,20.10
2019-06-20T03:49:31.327Z,20.10
2019-06-20T03:51:58.323Z,20.10
2019-06-20T03:54:25.369Z,20.10
2019-06-20T03:56:52.431Z,20.20
2019-06-20T03:59:19.445Z,20.20
2019-06-20T04:01:49.121Z,20.30
2019-06-20T04:04:15.277Z,20.30
2019-06-20T04:06:42.300Z,20.40
2019-06-20T04:09:10.307Z,20.40
2019-06-20T04:14:04.579Z,20.50
2019-06-20T04:16:31.668Z,20.50
2019-06-20T04:18:58.638Z,20.60
2019-06-20T04:21:25.622Z,20.60
2019-06-20T04:23:52.682Z,20.60
2019-06-20T04:26:19.681Z,20.60
2019-06-20T04:28:46.745Z,20.60
2019-06-20T04:31:13.793Z,20.70
2019-06-20T04:33:40.822Z,20.70
2019-06-20T04:36:07.948Z,20.70
2019-06-20T04:38:35.062Z,20.70
2019-06-20T04:41:02.075Z,20.70
2019-06-20T04:43:29.050Z,20.70
2019-06-20T04:46:03.910Z,20.70
2019-06-20T04:48:30.916Z,20.70
2019-06-20T04:50:57.898Z,20.70
2019-06-20T04:53:26.270Z,20.70
2019-06-20T04:55:53.299Z,20.80
2019-06-20T04:58:20.306Z,20.80
2019-06-20T05:00:47.405Z,20.90
2019-06-20T05:03:14.399Z,21.00
2019-06-20T05:05:41.388Z,21.00
2019-06-20T05:08:08.434Z,21.10
2019-06-20T05:10:35.703Z,21.10
2019-06-20T05:13:02.685Z,21.20
2019-06-20T05:15:30.052Z,21.30
2019-06-20T05:17:57.087Z,21.30
2019-06-20T05:20:24.149Z,21.40
2019-06-20T05:22:51.224Z,21.40
2019-06-20T05:25:18.229Z,21.50
2019-06-20T05:27:45.225Z,21.50
2019-06-20T05:30:12.294Z,21.60
2019-06-20T05:32:39.371Z,21.70
2019-06-20T05:35:09.086Z,21.70
2019-06-20T05:37:36.120Z,21.70
2019-06-20T05:40:06.129Z,21.80
2019-06-20T05:42:33.188Z,22.00
